Time,TemperatureF,DewpointF,PressureIn,WindDirection,WindDirectionDegrees,WindSpeedMPH,WindSpeedGustMPH,Humidity,HourlyPrecipIn,Conditions,Clouds,dailyrainin,SoftwareType,DateUTC
2013-11-09 00:00:00,40.5,37.8,29.62,WNW,293,5.0,8.0,90,0.00,,,-99.99,Weather View 32 v70,2013-11-09 06:00:00,
2013-11-09 00:10:00,40.8,38.1,29.62,West,262,4.0,8.0,90,0.00,,,-99.99,Weather View 32 v70,2013-11-09 06:10:00,
2013-11-09 00:15:00,40.8,38.1,29.62,WNW,291,5.0,8.0,90,0.00,,,-99.99,Weather View 32 v70,2013-11-09 06:15:00,
2013-11-09 00:20:00,41.0,38.3,29.62,West,267,5.0,8.0,90,0.00,,,-99.99,Weather View 32 v70,2013-11-09 06:20:00,
2013-11-09 00:27:00,41.0,38.3,29.62,WSW,256,5.0,8.0,90,0.00,,,-99.99,Weather View 32 v70,2013-11-09 06:27:00,
2013-11-09 00:35:00,41.2,38.5,29.62,WNW,282,5.0,8.0,90,0.00,,,-99.99,Weather View 32 v70,2013-11-09 06:35:00,
2013-11-09 00:45:00,41.5,38.8,29.62,WSW,254,5.0,8.0,90,0.00,,,-99.99,Weather View 32 v70,2013-11-09 06:45:00,
2013-11-09 00:50:00,41.5,38.5,29.62,West,267,5.0,8.0,89,0.00,,,-99.99,Weather View 32 v70,2013-11-09 06:50:00,
2013-11-09 00:55:00,41.5,38.5,29.62,WSW,248,4.0,8.0,89,0.00,,,-99.99,Weather View 32 v70,2013-11-09 06:55:00,
2013-11-09 01:00:00,41.5,38.2,29.65,WNW,287,5.0,8.0,88,0.00,,,-99.99,Weather View 32 v70,2013-11-09 07:00:00,
2013-11-09 01:10:00,41.4,38.1,29.65,WSW,239,4.0,8.0,88,0.00,,,-99.99,Weather View 32 v70,2013-11-09 07:10:00,
2013-11-09 01:15:00,41.4,37.8,29.65,WNW,282,6.0,9.0,87,0.00,,,-99.99,Weather View 32 v70,2013-11-09 07:15:00,
2013-11-09 01:25:00,41.4,37.5,29.65,WSW,245,8.0,9.0,86,0.00,,,-99.99,Weather View 32 v70,2013-11-09 07:25:00,
2013-11-09 01:30:00,41.4,37.5,29.65,West,271,6.0,9.0,86,0.00,,,-99.99,Weather View 32 v70,2013-11-09 07:30:00,
2013-11-09 01:40:00,41.2,37.0,29.65,WNW,293,7.0,9.0,85,0.00,,,-99.99,Weather View 32 v70,2013-11-09 07:40:00,
2013-11-09 01:45:00,41.2,36.7,29.65,WSW,241,6.0,9.0,84,0.00,,,-99.99,Weather View 32 v70,2013-11-09 07:45:00,
2013-11-09 01:50:00,41.2,36.4,29.65,West,279,6.0,9.0,83,0.00,,,-99.99,Weather View 32 v70,2013-11-09 07:50:00,
2013-11-09 02:00:00,41.2,36.1,29.65,West,267,6.0,9.0,82,0.00,,,-99.99,Weather View 32 v70,2013-11-09 08:00:00,
2013-11-09 02:05:00,41.2,36.1,29.65,West,264,5.0,10.0,82,0.00,,,-99.99,Weather View 32 v70,2013-11-09 08:05:00,
2013-11-09 02:10:00,41.2,35.8,29.65,NW,325,4.0,10.0,81,0.00,,,-99.99,Weather View 32 v70,2013-11-09 08:10:00,
2013-11-09 02:20:00,41.0,35.6,29.65,West,271,4.0,10.0,81,0.00,,,-99.99,Weather View 32 v70,2013-11-09 08:20:00,
2013-11-09 02:25:00,41.0,35.6,29.65,WNW,294,7.0,10.0,81,0.00,,,-99.99,Weather View 32 v70,2013-11-09 08:25:00,
2013-11-09 02:30:00,41.0,35.3,29.68,West,259,4.0,10.0,80,0.00,,,-99.99,Weather View 32 v70,2013-11-09 08:30:00,
2013-11-09 02:40:00,41.0,35.3,29.68,WSW,253,6.0,10.0,80,0.00,,,-99.99,Weather View 32 v70,2013-11-09 08:40:00,
2013-11-09 02:45:00,41.0,35.0,29.68,WSW,247,4.0,10.0,79,0.00,,,-99.99,Weather View 32 v70,2013-11-09 08:45:00,
2013-11-09 02:50:00,40.8,35.1,29.68,WSW,249,4.0,10.0,80,0.00,,,-99.99,Weather View 32 v70,2013-11-09 08:50:00,
2013-11-09 02:55:00,40.6,34.6,29.68,West,269,4.0,10.0,79,0.00,,,-99.99,Weather View 32 v70,2013-11-09 08:55:00,
2013-11-09 03:00:00,40.6,34.6,29.68,West,268,5.0,10.0,79,0.00,,,-99.99,Weather View 32 v70,2013-11-09 09:00:00,
2013-11-09 03:10:00,40.5,34.5,29.68,West,267,6.0,10.0,79,0.00,,,-99.99,Weather View 32 v70,2013-11-09 09:10:00,
2013-11-09 03:15:00,40.5,34.8,29.71,West,261,8.0,10.0,80,0.00,,,-99.99,Weather View 32 v70,2013-11-09 09:15:00,
2013-11-09 03:20:00,40.5,34.8,29.71,WNW,284,6.0,10.0,80,0.00,,,-99.99,Weather View 32 v70,2013-11-09 09:20:00,
2013-11-09 03:29:00,40.5,34.8,29.71,WSW,247,6.0,12.0,80,0.00,,,-99.99,Weather View 32 v70,2013-11-09 09:29:00,
2013-11-09 03:35:00,40.5,34.8,29.71,WNW,300,6.0,12.0,80,0.00,,,-99.99,Weather View 32 v70,2013-11-09 09:35:00,
2013-11-09 03:40:00,40.5,34.8,29.71,SSW,210,2.0,12.0,80,0.00,,,-99.99,Weather View 32 v70,2013-11-09 09:40:00,
2013-11-09 03:45:00,40.5,34.8,29.71,NW,311,6.0,12.0,80,0.00,,,-99.99,Weather View 32 v70,2013-11-09 09:45:00,
2013-11-09 03:50:00,40.6,34.9,29.71,WNW,284,4.0,12.0,80,0.00,,,-99.99,Weather View 32 v70,2013-11-09 09:50:00,
2013-11-09 04:00:00,40.6,34.9,29.71,West,271,4.0,12.0,80,0.00,,,-99.99,Weather View 32 v70,2013-11-09 10:00:00,
2013-11-09 04:05:00,40.6,34.9,29.71,WSW,246,8.0,12.0,80,0.00,,,-99.99,Weather View 32 v70,2013-11-09 10:05:00,
2013-11-09 04:15:00,40.6,34.6,29.71,West,266,4.0,12.0,79,0.00,,,-99.99,Weather View 32 v70,2013-11-09 10:15:00,
2013-11-09 04:20:00,40.6,34.6,29.71,West,265,3.0,12.0,79,0.00,,,-99.99,Weather View 32 v70,2013-11-09 10:20:00,
2013-11-09 04:29:00,40.6,34.6,29.71,WSW,255,5.0,10.0,79,0.00,,,-99.99,Weather View 32 v70,2013-11-09 10:29:00,
2013-11-09 04:35:00,40.6,34.6,29.74,WSW,251,4.0,10.0,79,0.00,,,-99.99,Weather View 32 v70,2013-11-09 10:35:00,
2013-11-09 04:40:00,40.6,34.6,29.74,WSW,250,7.0,10.0,79,0.00,,,-99.99,Weather View 32 v70,2013-11-09 10:40:00,
2013-11-09 04:45:00,40.6,34.6,29.74,West,278,8.0,9.0,79,0.00,,,-99.99,Weather View 32 v70,2013-11-09 10:45:00,
2013-11-09 04:50:00,40.6,34.3,29.74,NW,324,6.0,11.0,78,0.00,,,-99.99,Weather View 32 v70,2013-11-09 10:50:00,
2013-11-09 04:55:00,40.5,33.8,29.74,WNW,285,8.0,11.0,77,0.00,,,-99.99,Weather View 32 v70,2013-11-09 10:55:00,
2013-11-09 05:05:00,40.3,33.6,29.74,WNW,295,5.0,11.0,77,0.00,,,-99.99,Weather View 32 v70,2013-11-09 11:05:00,
2013-11-09 05:10:00,40.1,33.5,29.74,WSW,245,4.0,11.0,77,0.00,,,-99.99,Weather View 32 v70,2013-11-09 11:10:00,
2013-11-09 05:15:00,40.1,33.5,29.77,West,272,5.0,12.0,77,0.00,,,-99.99,Weather View 32 v70,2013-11-09 11:15:00,
2013-11-09 05:25:00,40.3,33.6,29.77,West,276,5.0,12.0,77,0.00,,,-99.99,Weather View 32 v70,2013-11-09 11:25:00,
2013-11-09 05:30:00,40.3,33.6,29.77,SW,232,4.0,12.0,77,0.00,,,-99.99,Weather View 32 v70,2013-11-09 11:30:00,
2013-11-09 05:40:00,40.3,33.6,29.77,WSW,239,6.0,12.0,77,0.00,,,-99.99,Weather View 32 v70,2013-11-09 11:40:00,
2013-11-09 05:45:00,40.3,33.6,29.77,West,264,10.0,12.0,77,0.00,,,-99.99,Weather View 32 v70,2013-11-09 11:45:00,
2013-11-09 05:50:00,40.1,33.5,29.77,WNW,295,8.0,12.0,77,0.00,,,-99.99,Weather View 32 v70,2013-11-09 11:50:00,
2013-11-09 06:00:00,39.4,33.1,29.80,WNW,295,12.0,13.0,78,0.00,,,-99.99,Weather View 32 v70,2013-11-09 12:00:00,
2013-11-09 06:05:00,39.2,32.9,29.80,West,259,10.0,13.0,78,0.00,,,-99.99,Weather View 32 v70,2013-11-09 12:05:00,
2013-11-09 06:10:00,39.2,32.9,29.80,WNW,288,8.0,13.0,78,0.00,,,-99.99,Weather View 32 v70,2013-11-09 12:10:00,
2013-11-09 06:15:00,39.2,32.9,29.80,ESE,116,6.0,13.0,78,0.00,,,-99.99,Weather View 32 v70,2013-11-09 12:15:00,
2013-11-09 06:25:00,39.0,33.1,29.80,West,271,9.0,13.0,79,0.00,,,-99.99,Weather View 32 v70,2013-11-09 12:25:00,
2013-11-09 06:30:00,38.8,32.6,29.80,WSW,250,12.0,13.0,78,0.00,,,-99.99,Weather View 32 v70,2013-11-09 12:30:00,
2013-11-09 06:35:00,38.7,32.1,29.80,West,272,9.0,15.0,77,0.00,,,-99.99,Weather View 32 v70,2013-11-09 12:35:00,
2013-11-09 06:45:00,38.5,31.6,29.83,West,266,9.0,15.0,76,0.00,,,-99.99,Weather View 32 v70,2013-11-09 12:45:00,
2013-11-09 06:55:00,38.1,30.9,29.83,WNW,290,8.0,15.0,75,0.00,,,-99.99,Weather View 32 v70,2013-11-09 12:55:00,
2013-11-09 07:00:00,38.1,30.9,29.83,West,264,7.0,15.0,75,0.00,,,-99.99,Weather View 32 v70,2013-11-09 13:00:00,
2013-11-09 07:05:00,37.9,30.4,29.83,WSW,252,8.0,15.0,74,0.00,,,-99.99,Weather View 32 v70,2013-11-09 13:05:00,
2013-11-09 07:10:00,37.8,30.2,29.83,West,275,6.0,15.0,74,0.00,,,-99.99,Weather View 32 v70,2013-11-09 13:10:00,
2013-11-09 07:20:00,37.6,29.7,29.83,WNW,300,8.0,15.0,73,0.00,,,-99.99,Weather View 32 v70,2013-11-09 13:20:00,
2013-11-09 07:25:00,37.6,29.4,29.83,WSW,253,10.0,15.0,72,0.00,,,-99.99,Weather View 32 v70,2013-11-09 13:25:00,
2013-11-09 07:31:00,37.6,29.4,29.83,WNW,299,8.0,15.0,72,0.00,,,-99.99,Weather View 32 v70,2013-11-09 13:31:00,
2013-11-09 07:40:00,37.4,28.5,29.83,West,265,11.0,15.0,70,0.00,,,-99.99,Weather View 32 v70,2013-11-09 13:40:00,
2013-11-09 07:45:00,37.4,28.2,29.86,WSW,258,11.0,15.0,69,0.00,,,-99.99,Weather View 32 v70,2013-11-09 13:45:00,
2013-11-09 07:50:00,37.4,27.4,29.86,SW,219,10.0,15.0,67,0.00,,,-99.99,Weather View 32 v70,2013-11-09 13:50:00,
2013-11-09 07:55:00,37.2,26.9,29.86,WSW,256,8.0,15.0,66,0.00,,,-99.99,Weather View 32 v70,2013-11-09 13:55:00,
2013-11-09 08:00:00,37.2,26.2,29.86,WNW,300,8.0,15.0,64,0.00,,,-99.99,Weather View 32 v70,2013-11-09 14:00:00,
2013-11-09 08:10:00,37.0,24.8,29.86,West,266,9.0,15.0,61,0.00,,,-99.99,Weather View 32 v70,2013-11-09 14:10:00,
2013-11-09 08:15:00,36.9,24.3,29.86,WSW,247,12.0,15.0,60,0.00,,,-99.99,Weather View 32 v70,2013-11-09 14:15:00,
2013-11-09 08:20:00,36.7,23.7,29.86,West,262,8.0,15.0,59,0.00,,,-99.99,Weather View 32 v70,2013-11-09 14:20:00,
2013-11-09 08:25:00,36.7,24.1,29.86,West,281,6.0,15.0,60,0.00,,,-99.99,Weather View 32 v70,2013-11-09 14:25:00,
2013-11-09 08:32:00,36.7,24.1,29.89,West,265,8.0,15.0,60,0.00,,,-99.99,Weather View 32 v70,2013-11-09 14:32:00,
2013-11-09 08:40:00,36.7,24.1,29.89,SW,223,6.0,15.0,60,0.00,,,-99.99,Weather View 32 v70,2013-11-09 14:40:00,
2013-11-09 08:50:00,36.7,24.1,29.89,WSW,253,9.0,15.0,60,0.00,,,-99.99,Weather View 32 v70,2013-11-09 14:50:00,
2013-11-09 08:55:00,36.7,24.5,29.89,WNW,284,4.0,15.0,61,0.00,,,-99.99,Weather View 32 v70,2013-11-09 14:55:00,
2013-11-09 09:05:00,36.9,24.3,29.89,West,276,7.0,15.0,60,0.00,,,-99.99,Weather View 32 v70,2013-11-09 15:05:00,
2013-11-09 09:10:00,37.0,24.0,29.89,WSW,252,6.0,15.0,59,0.00,,,-99.99,Weather View 32 v70,2013-11-09 15:10:00,
2013-11-09 09:20:00,37.4,23.1,29.89,West,280,6.0,13.0,56,0.00,,,-99.99,Weather View 32 v70,2013-11-09 15:20:00,
2013-11-09 09:25:00,37.4,22.7,29.89,WSW,257,5.0,13.0,55,0.00,,,-99.99,Weather View 32 v70,2013-11-09 15:25:00,
2013-11-09 09:30:00,37.4,22.7,29.89,WSW,243,4.0,13.0,55,0.00,,,-99.99,Weather View 32 v70,2013-11-09 15:30:00,
2013-11-09 09:35:00,37.6,22.9,29.89,WNW,301,8.0,13.0,55,0.00,,,-99.99,Weather View 32 v70,2013-11-09 15:35:00,
2013-11-09 09:45:00,37.8,22.1,29.89,WSW,237,8.0,13.0,53,0.00,,,-99.99,Weather View 32 v70,2013-11-09 15:45:00,
2013-11-09 09:50:00,37.8,22.1,29.89,West,276,8.0,13.0,53,0.00,,,-99.99,Weather View 32 v70,2013-11-09 15:50:00,
2013-11-09 09:55:00,37.9,21.9,29.89,WNW,295,6.0,14.0,52,0.00,,,-99.99,Weather View 32 v70,2013-11-09 15:55:00,
2013-11-09 10:00:00,37.9,21.9,29.92,West,273,10.0,14.0,52,0.00,,,-99.99,Weather View 32 v70,2013-11-09 16:00:00,
2013-11-09 10:05:00,37.9,21.9,29.92,WSW,250,6.0,14.0,52,0.00,,,-99.99,Weather View 32 v70,2013-11-09 16:05:00,
2013-11-09 10:10:00,37.9,21.9,29.92,WSW,245,9.0,14.0,52,0.00,,,-99.99,Weather View 32 v70,2013-11-09 16:10:00,
2013-11-09 10:20:00,37.9,21.4,29.92,SW,230,6.0,14.0,51,0.00,,,-99.99,Weather View 32 v70,2013-11-09 16:20:00,
2013-11-09 10:25:00,37.9,21.4,29.92,SW,221,8.0,14.0,51,0.00,,,-99.99,Weather View 32 v70,2013-11-09 16:25:00,
2013-11-09 10:33:00,37.9,21.4,29.92,SW,236,8.0,14.0,51,0.00,,,-99.99,Weather View 32 v70,2013-11-09 16:33:00,
2013-11-09 10:40:00,37.9,21.9,29.92,West,274,8.0,14.0,52,0.00,,,-99.99,Weather View 32 v70,2013-11-09 16:40:00,
2013-11-09 10:45:00,37.9,21.9,29.92,WNW,289,6.0,14.0,52,0.00,,,-99.99,Weather View 32 v70,2013-11-09 16:45:00,
2013-11-09 10:50:00,38.1,22.0,29.92,WSW,251,10.0,14.0,52,0.00,,,-99.99,Weather View 32 v70,2013-11-09 16:50:00,
2013-11-09 11:00:00,38.5,22.4,29.92,West,267,5.0,14.0,52,0.00,,,-99.99,Weather View 32 v70,2013-11-09 17:00:00,
2013-11-09 11:05:00,38.7,22.5,29.92,West,265,11.0,14.0,52,0.00,,,-99.99,Weather View 32 v70,2013-11-09 17:05:00,
2013-11-09 11:10:00,38.7,22.5,29.92,WSW,247,8.0,14.0,52,0.00,,,-99.99,Weather View 32 v70,2013-11-09 17:10:00,
2013-11-09 11:20:00,39.0,22.9,29.92,West,279,8.0,17.0,52,0.00,,,-99.99,Weather View 32 v70,2013-11-09 17:20:00,
2013-11-09 11:25:00,39.0,22.9,29.92,NW,319,8.0,17.0,52,0.00,,,-99.99,Weather View 32 v70,2013-11-09 17:25:00,
2013-11-09 11:35:00,38.8,22.2,29.92,SSW,209,12.0,17.0,51,0.00,,,-99.99,Weather View 32 v70,2013-11-09 17:35:00,
2013-11-09 11:40:00,39.0,22.4,29.92,West,259,8.0,17.0,51,0.00,,,-99.99,Weather View 32 v70,2013-11-09 17:40:00,
2013-11-09 11:45:00,39.0,21.9,29.94,WSW,237,14.0,17.0,50,0.00,,,-99.99,Weather View 32 v70,2013-11-09 17:45:00,
2013-11-09 11:55:00,38.7,21.6,29.94,SW,227,8.0,17.0,50,0.00,,,-99.99,Weather View 32 v70,2013-11-09 17:55:00,
2013-11-09 12:00:00,38.5,21.9,29.94,WNW,298,9.0,17.0,51,0.00,,,-99.99,Weather View 32 v70,2013-11-09 18:00:00,
2013-11-09 12:05:00,38.5,21.9,29.94,WSW,237,13.0,17.0,51,0.00,,,-99.99,Weather View 32 v70,2013-11-09 18:05:00,